Time;durP1;ratioP1;P1;durP2;ratioP2;P2;SDS_P1;SDS_P2;PMS_P1;PMS_P2;Temp;Humidity;BMP_temperature;BMP_pressure;BME280_temperature;BME280_humidity;BME280_pressure;Samples;Min_cycle;Max_cycle;Signal;HPM_P1;HPM_P2
2022/11/26 00:06:37;;;;;;;18.10;8.00;;;;;8.30;99878.00;;;;16595984;28;20230;-48
2022/11/26 00:14:41;;;;;;;11.70;6.60;;;;;8.30;99887.00;;;;16652760;22;20283;-81
2022/11/26 00:22:50;;;;;;;10.07;6.40;;;;;8.00;99887.00;;;;16660401;28;20263;-81
2022/11/26 00:30:52;;;;;;;14.30;6.77;;;;;7.90;99900.00;;;;16674445;28;20233;-81
2022/11/26 00:39:01;;;;;;;20.67;13.30;;;;;8.50;99893.00;;;;16681538;28;20288;-81
2022/11/26 00:47:03;;;;;;;8.10;6.03;;;;;8.00;99911.00;;;;16678860;28;20228;-81
2022/11/26 00:55:17;;;;;;;8.93;5.90;;;;;8.60;99912.00;;;;16694989;28;20229;-81
2022/11/26 01:03:20;;;;;;;6.90;5.43;;;;;8.20;99928.00;;;;16674403;28;20237;-81
2022/11/26 01:11:27;;;;;;;7.47;5.20;;;;;8.30;99940.00;;;;16675435;28;20282;-80
2022/11/26 01:19:30;;;;;;;11.03;7.83;;;;;8.30;99952.00;;;;16682644;28;20214;-80
2022/11/26 01:27:34;;;;;;;7.07;5.10;;;;;8.40;99958.00;;;;16683732;28;20217;-80
2022/11/26 01:35:37;;;;;;;7.97;5.07;;;;;8.00;99968.00;;;;16676018;28;20241;-80
2022/11/26 01:43:43;;;;;;;12.43;5.90;;;;;8.30;99978.00;;;;16666488;28;20210;-80
2022/11/26 01:51:46;;;;;;;12.87;7.33;;;;;8.60;99988.00;;;;16669852;28;20932;-81
2022/11/26 01:59:51;;;;;;;9.53;5.77;;;;;8.60;99999.00;;;;16670327;28;20234;-81
2022/11/26 02:07:54;;;;;;;10.13;6.03;;;;;8.50;99997.00;;;;16663808;28;20222;-80
2022/11/26 02:16:03;;;;;;;7.77;6.40;;;;;8.50;99992.00;;;;16657132;28;20229;-80
2022/11/26 02:24:28;;;;;;;7.47;5.87;;;;;8.60;100004.00;;;;16639354;28;20215;-81
2022/11/26 02:32:41;;;;;;;12.33;7.17;;;;;9.00;100015.00;;;;16624779;28;20242;-81
2022/11/26 02:40:43;;;;;;;11.40;7.60;;;;;9.20;100016.00;;;;16630441;28;20209;-81
2022/11/26 02:48:49;;;;;;;10.80;6.47;;;;;8.60;100042.00;;;;16644546;28;20214;-81
2022/11/26 02:56:52;;;;;;;8.37;5.53;;;;;9.30;100044.00;;;;16659020;28;20877;-81
2022/11/26 03:04:59;;;;;;;14.37;7.20;;;;;8.50;100062.00;;;;16667569;28;20229;-81
2022/11/26 03:13:02;;;;;;;10.00;7.40;;;;;9.00;100069.00;;;;16662668;28;20234;-81
2022/11/26 03:21:06;;;;;;;10.60;6.40;;;;;8.60;100078.00;;;;16653559;28;20199;-81
2022/11/26 03:29:08;;;;;;;10.80;5.47;;;;;9.10;100077.00;;;;16640762;28;20230;-81
2022/11/26 03:37:12;;;;;;;11.07;7.57;;;;;8.50;100091.00;;;;16652245;28;20285;-80
2022/11/26 03:45:14;;;;;;;10.83;7.03;;;;;8.70;100089.00;;;;16647624;28;20237;-80
2022/11/26 03:53:18;;;;;;;13.20;7.03;;;;;8.90;100107.00;;;;16666712;28;20230;-81
2022/11/26 04:01:21;;;;;;;17.00;8.67;;;;;9.10;100092.00;;;;16664825;28;20213;-80
2022/11/26 04:09:25;;;;;;;9.77;6.03;;;;;8.50;100096.00;;;;16665799;28;20231;-80
2022/11/26 04:17:27;;;;;;;8.60;6.23;;;;;8.40;100106.00;;;;16658284;28;20239;-81
2022/11/26 04:25:31;;;;;;;10.43;6.30;;;;;8.10;100119.00;;;;16650846;28;20463;-82
2022/11/26 04:33:34;;;;;;;11.70;8.40;;;;;9.30;100097.00;;;;16648024;28;20669;-81
2022/11/26 04:41:37;;;;;;;9.03;7.40;;;;;8.40;100115.00;;;;16664992;28;20331;-80
2022/11/26 04:49:40;;;;;;;6.37;5.50;;;;;8.70;100115.00;;;;16672643;28;20222;-81
2022/11/26 04:57:47;;;;;;;6.77;6.10;;;;;9.10;100104.00;;;;16688789;28;20301;-80
2022/11/26 05:05:50;;;;;;;8.50;6.47;;;;;8.70;100121.00;;;;16684777;28;20214;-81
2022/11/26 05:13:53;;;;;;;9.80;7.90;;;;;8.80;100120.00;;;;16668117;28;20222;-81
2022/11/26 05:21:56;;;;;;;12.70;8.53;;;;;8.80;100133.00;;;;16659112;28;20290;-82
2022/11/26 05:30:00;;;;;;;7.47;5.13;;;;;8.30;100135.00;;;;16631991;22;20885;-79
2022/11/26 05:38:03;;;;;;;8.50;5.67;;;;;8.40;100144.00;;;;16589110;28;20687;-80
2022/11/26 05:46:08;;;;;;;8.63;6.07;;;;;8.40;100160.00;;;;16591670;28;20219;-80
2022/11/26 05:54:13;;;;;;;10.93;9.83;;;;;8.80;100155.00;;;;16593132;28;20238;-78
2022/11/26 06:02:18;;;;;;;10.87;9.23;;;;;7.60;100182.00;;;;16562149;28;20690;-80
2022/11/26 06:10:20;;;;;;;18.60;14.07;;;;;7.70;100186.00;;;;16554610;28;20211;-78
2022/11/26 06:18:24;;;;;;;10.30;8.27;;;;;7.70;100188.00;;;;16585269;28;20239;-77
2022/11/26 06:26:27;;;;;;;12.50;7.30;;;;;7.00;100207.00;;;;16578723;28;20581;-79
2022/11/26 06:34:31;;;;;;;11.07;7.63;;;;;7.00;100202.00;;;;16586943;28;20305;-79
2022/11/26 06:42:34;;;;;;;24.30;9.30;;;;;6.90;100212.00;;;;16589534;28;20226;-80
2022/11/26 06:50:38;;;;;;;23.37;7.87;;;;;6.50;100228.00;;;;16590229;28;20210;-75
2022/11/26 06:58:40;;;;;;;30.90;8.10;;;;;6.50;100243.00;;;;16572249;28;20231;-81
2022/11/26 07:06:45;;;;;;;24.30;11.03;;;;;6.40;100260.00;;;;16571161;28;20721;-78
2022/11/26 07:14:48;;;;;;;18.53;10.03;;;;;6.70;100268.00;;;;16580202;28;20610;-77
2022/11/26 07:22:52;;;;;;;13.00;9.70;;;;;6.60;100274.00;;;;16581658;28;20268;-77
2022/11/26 07:30:55;;;;;;;14.63;8.67;;;;;6.80;100298.00;;;;16581754;28;20229;-77
2022/11/26 07:39:00;;;;;;;12.43;9.60;;;;;7.00;100304.00;;;;16581953;28;20241;-76
2022/11/26 07:47:03;;;;;;;18.63;11.47;;;;;7.20;100313.00;;;;16593236;28;20682;-77
2022/11/26 07:55:11;;;;;;;13.00;9.20;;;;;7.20;100325.00;;;;16580503;28;20224;-76
2022/11/26 08:03:13;;;;;;;11.67;9.30;;;;;7.50;100324.00;;;;16546878;28;20756;-77
2022/11/26 08:11:19;;;;;;;14.50;11.07;;;;;7.70;100324.00;;;;16562560;28;20319;-77
2022/11/26 08:19:22;;;;;;;13.10;11.87;;;;;8.10;100316.00;;;;16586518;28;20721;-75
2022/11/26 08:27:26;;;;;;;16.67;12.20;;;;;8.50;100325.00;;;;16583316;28;20241;-78
2022/11/26 08:35:28;;;;;;;14.60;13.00;;;;;8.50;100330.00;;;;16591344;28;20231;-78
2022/11/26 08:43:34;;;;;;;14.87;12.33;;;;;9.30;100320.00;;;;16570406;28;20266;-77
2022/11/26 08:51:36;;;;;;;18.40;14.57;;;;;9.10;100351.00;;;;16541886;28;20548;-76
2022/11/26 08:59:40;;;;;;;13.00;11.73;;;;;9.40;100333.00;;;;16571922;28;20233;-78
2022/11/26 09:07:42;;;;;;;14.20;12.00;;;;;10.30;100319.00;;;;16602098;28;20211;-79
2022/11/26 09:15:47;;;;;;;19.40;15.83;;;;;11.50;100305.00;;;;16602885;28;20233;-78
2022/11/26 09:23:49;;;;;;;23.27;14.33;;;;;10.50;100308.00;;;;16603409;28;20231;-78
2022/11/26 09:31:53;;;;;;;10.07;8.33;;;;;12.20;100290.00;;;;16593612;28;20254;-79
2022/11/26 09:39:56;;;;;;;18.00;10.90;;;;;12.20;100307.00;;;;16582510;28;20735;-79
2022/11/26 09:48:01;;;;;;;11.27;8.23;;;;;12.40;100300.00;;;;16549761;28;20595;-79
2022/11/26 09:56:04;;;;;;;8.50;7.50;;;;;13.20;100299.00;;;;16543830;28;20281;-78
2022/11/26 10:04:09;;;;;;;9.33;6.53;;;;;13.70;100292.00;;;;16549526;28;20509;-78
2022/11/26 10:12:21;;;;;;;13.37;8.93;;;;;12.80;100291.00;;;;16558252;28;20237;-78
2022/11/26 10:20:45;;;;;;;8.33;7.53;;;;;14.00;100278.00;;;;16563299;28;20750;-78
2022/11/26 10:28:49;;;;;;;12.50;6.70;;;;;14.60;100281.00;;;;16575135;28;20718;-78
2022/11/26 10:36:53;;;;;;;7.40;6.30;;;;;15.20;100273.00;;;;16583570;28;20231;-78
2022/11/26 10:44:56;;;;;;;10.33;6.33;;;;;15.60;100270.00;;;;16585400;28;20224;-78
2022/11/26 10:53:05;;;;;;;10.07;6.97;;;;;14.70;100272.00;;;;16589713;28;20223;-79
2022/11/26 11:01:09;;;;;;;9.30;6.80;;;;;14.40;100271.00;;;;16594609;28;20224;-79
2022/11/26 11:09:31;;;;;;;10.13;6.60;;;;;14.70;100265.00;;;;16593391;28;20206;-78
2022/11/26 11:17:35;;;;;;;15.80;7.50;;;;;15.20;100253.00;;;;16601356;28;20230;-79
2022/11/26 11:25:41;;;;;;;7.10;5.70;;;;;15.30;100247.00;;;;16583261;28;20242;-78
2022/11/26 11:33:44;;;;;;;10.80;5.97;;;;;15.00;100247.00;;;;16586399;28;20691;-80
2022/11/26 11:41:48;;;;;;;6.93;4.97;;;;;14.90;100245.00;;;;16582180;28;20219;-78
2022/11/26 11:50:11;;;;;;;8.33;5.20;;;;;15.40;100240.00;;;;16564384;28;20191;-78
2022/11/26 11:58:27;;;;;;;9.03;5.00;;;;;16.10;100221.00;;;;16586729;28;20224;-78
2022/11/26 12:06:38;;;;;;;10.47;4.90;;;;;16.90;100221.00;;;;16597010;28;20219;-78
2022/11/26 12:14:46;;;;;;;10.73;5.07;;;;;16.60;100209.00;;;;16591044;28;20222;-77
2022/11/26 12:22:51;;;;;;;15.23;6.10;;;;;14.70;100238.00;;;;16601054;28;20227;-77
2022/11/26 12:30:58;;;;;;;12.83;5.93;;;;;14.50;100220.00;;;;16598435;28;20269;-77
2022/11/26 12:39:04;;;;;;;10.03;5.17;;;;;14.00;100246.00;;;;16593906;28;20255;-77
2022/11/26 12:47:16;;;;;;;6.30;4.00;;;;;16.10;100220.00;;;;16593090;28;20226;-77
2022/11/26 12:55:22;;;;;;;6.83;4.10;;;;;16.30;100212.00;;;;16589528;28;20234;-75
2022/11/26 13:03:31;;;;;;;8.20;3.90;;;;;17.60;100198.00;;;;16589961;28;20767;-76
2022/11/26 13:11:40;;;;;;;8.03;5.27;;;;;17.20;100203.00;;;;16588432;28;20223;-76
2022/11/26 13:19:49;;;;;;;7.90;4.57;;;;;15.00;100204.00;;;;16589816;28;20310;-77
2022/11/26 13:28:01;;;;;;;9.57;4.60;;;;;14.20;100207.00;;;;16588824;28;20242;-77
2022/11/26 13:36:23;;;;;;;7.87;5.00;;;;;13.80;100213.00;;;;16588041;28;20223;-77
2022/11/26 13:44:55;;;;;;;10.27;6.70;;;;;13.70;100205.00;;;;16586471;28;20586;-77
2022/11/26 13:53:01;;;;;;;9.40;7.00;;;;;13.80;100213.00;;;;16585926;28;20248;-77
2022/11/26 14:01:26;;;;;;;18.00;8.97;;;;;13.30;100205.00;;;;16588117;28;20283;-76
2022/11/26 14:09:51;;;;;;;16.60;10.23;;;;;13.30;100207.00;;;;16586136;28;20210;-75
2022/11/26 14:17:56;;;;;;;15.43;10.80;;;;;13.30;100222.00;;;;16584361;22;20241;-79
2022/11/26 14:26:00;;;;;;;18.50;9.43;;;;;13.20;100223.00;;;;16656312;28;21898;-80
2022/11/26 14:34:09;;;;;;;14.87;10.30;;;;;13.70;100212.00;;;;16620757;28;20238;-80
2022/11/26 14:42:16;;;;;;;9.50;7.87;;;;;12.20;100226.00;;;;16623112;28;20260;-80
2022/11/26 14:50:21;;;;;;;13.97;8.73;;;;;11.20;100258.00;;;;16629006;28;20222;-79
2022/11/26 14:58:31;;;;;;;15.80;9.10;;;;;11.00;100262.00;;;;16640849;28;20275;-79
2022/11/26 15:06:37;;;;;;;11.10;8.10;;;;;10.60;100264.00;;;;16642775;28;20283;-79
2022/11/26 15:14:45;;;;;;;16.93;13.70;;;;;10.50;100267.00;;;;16639811;28;20230;-81
2022/11/26 15:22:50;;;;;;;15.43;8.60;;;;;10.20;100281.00;;;;16640366;28;20199;-81
2022/11/26 15:30:57;;;;;;;12.30;9.00;;;;;10.70;100274.00;;;;16637037;28;20218;-81
2022/11/26 15:39:01;;;;;;;13.27;6.70;;;;;10.10;100273.00;;;;16634831;28;20230;-80
2022/11/26 15:47:06;;;;;;;9.97;8.60;;;;;9.40;100273.00;;;;16634570;28;20230;-79
2022/11/26 15:55:16;;;;;;;19.83;10.80;;;;;9.10;100265.00;;;;16608808;28;20227;-78
2022/11/26 16:03:53;;;;;;;18.53;13.80;;;;;8.80;100281.00;;;;16633704;28;20294;-79
2022/11/26 16:11:59;;;;;;;11.80;10.57;;;;;8.60;100273.00;;;;16421422;28;20217;-80
2022/11/26 16:20:04;;;;;;;17.00;9.93;;;;;8.80;100269.00;;;;16427586;28;20252;-80
2022/11/26 16:28:13;;;;;;;20.63;12.70;;;;;8.40;100266.00;;;;16417687;28;20243;-81
2022/11/26 16:36:23;;;;;;;26.17;17.63;;;;;8.30;100266.00;;;;16461021;28;20271;-80
2022/11/26 16:44:25;;;;;;;15.00;12.73;;;;;7.80;100282.00;;;;16660930;28;20226;-76
2022/11/26 16:52:29;;;;;;;20.83;14.60;;;;;7.70;100282.00;;;;16700728;28;20528;-81
2022/11/26 17:00:32;;;;;;;29.83;17.20;;;;;7.70;100278.00;;;;16632438;28;20695;-79
2022/11/26 17:08:36;;;;;;;27.53;15.40;;;;;7.60;100277.00;;;;16634347;28;20283;-77
2022/11/26 17:16:40;;;;;;;26.70;14.77;;;;;7.50;100281.00;;;;16621558;28;20233;-79
2022/11/26 17:24:44;;;;;;;24.30;15.37;;;;;7.40;100288.00;;;;16661641;23;20222;-46
2022/11/26 17:32:47;;;;;;;29.77;19.57;;;;;7.30;100285.00;;;;16584282;28;20256;-47
2022/11/26 17:40:51;;;;;;;20.13;16.87;;;;;6.90;100299.00;;;;16582821;28;20266;-47
2022/11/26 17:48:54;;;;;;;24.17;17.10;;;;;6.90;100303.00;;;;16582202;28;20208;-46
2022/11/26 17:56:58;;;;;;;20.70;15.80;;;;;6.80;100313.00;;;;16542495;28;20331;-47
2022/11/26 18:05:00;;;;;;;22.47;17.47;;;;;6.80;100304.00;;;;16536641;28;20266;-46
2022/11/26 18:13:04;;;;;;;24.87;18.50;;;;;6.60;100306.00;;;;16537347;28;20899;-47
2022/11/26 18:21:07;;;;;;;20.43;16.23;;;;;6.70;100306.00;;;;16542684;28;20291;-46
2022/11/26 18:29:11;;;;;;;28.73;19.80;;;;;6.30;100305.00;;;;16537635;28;20213;-47
2022/11/26 18:37:14;;;;;;;25.87;18.13;;;;;6.60;100303.00;;;;16538676;28;20718;-46
2022/11/26 18:45:18;;;;;;;25.40;16.67;;;;;6.50;100303.00;;;;16546059;28;20820;-46
2022/11/26 18:53:20;;;;;;;29.80;19.23;;;;;6.30;100326.00;;;;16547127;28;20228;-47
2022/11/26 19:01:27;;;;;;;23.17;18.97;;;;;6.40;100306.00;;;;16549599;28;20363;-47
2022/11/26 19:09:29;;;;;;;29.37;19.07;;;;;6.20;100298.00;;;;16581715;28;20552;-47
2022/11/26 19:17:33;;;;;;;29.10;21.40;;;;;6.20;100294.00;;;;16582653;28;20296;-47
2022/11/26 19:25:36;;;;;;;33.87;23.10;;;;;6.10;100295.00;;;;16545786;28;20322;-47
2022/11/26 19:33:40;;;;;;;32.63;22.50;;;;;5.90;100293.00;;;;16539282;28;20247;-47
2022/11/26 19:41:42;;;;;;;27.80;24.03;;;;;6.20;100284.00;;;;16544179;28;20307;-47
2022/11/26 19:49:47;;;;;;;33.73;22.23;;;;;6.40;100271.00;;;;16537535;28;20274;-47
2022/11/26 19:57:49;;;;;;;31.17;22.53;;;;;6.30;100271.00;;;;16562177;28;20229;-47
2022/11/26 20:05:54;;;;;;;29.77;21.23;;;;;6.20;100265.00;;;;16577366;28;20212;-47
2022/11/26 20:13:57;;;;;;;31.73;22.53;;;;;5.80;100257.00;;;;16573159;28;20253;-47
2022/11/26 20:22:01;;;;;;;33.80;22.93;;;;;6.20;100249.00;;;;16582297;28;20243;-47
2022/11/26 20:30:03;;;;;;;30.40;21.40;;;;;6.00;100255.00;;;;16554013;28;20289;-47
2022/11/26 20:38:07;;;;;;;33.67;22.60;;;;;5.80;100268.00;;;;16560335;28;20232;-47
2022/11/26 20:46:12;;;;;;;31.20;22.17;;;;;5.90;100259.00;;;;16594305;28;20716;-47
2022/11/26 20:54:15;;;;;;;37.40;25.10;;;;;6.40;100250.00;;;;16552521;28;20228;-47
2022/11/26 21:02:18;;;;;;;26.47;20.10;;;;;6.00;100250.00;;;;16590074;28;20883;-47
2022/11/26 21:10:24;;;;;;;35.23;24.17;;;;;6.10;100244.00;;;;16599350;28;20721;-47
2022/11/26 21:18:26;;;;;;;45.10;26.87;;;;;5.90;100259.00;;;;16583287;28;20234;-46
2022/11/26 21:26:30;;;;;;;41.90;25.27;;;;;5.80;100258.00;;;;16586117;28;20229;-47
2022/11/26 21:34:32;;;;;;;33.07;21.73;;;;;5.60;100258.00;;;;16588404;28;20250;-47
2022/11/26 21:42:36;;;;;;;36.07;24.70;;;;;5.70;100257.00;;;;16588110;28;20737;-46
2022/11/26 21:50:39;;;;;;;45.50;26.17;;;;;5.60;100273.00;;;;16600237;28;20632;-47
2022/11/26 21:58:43;;;;;;;58.70;25.00;;;;;5.40;100267.00;;;;16587875;28;20285;-47
2022/11/26 22:06:47;;;;;;;33.83;24.10;;;;;5.10;100281.00;;;;16592138;28;20220;-46
2022/11/26 22:14:51;;;;;;;26.80;22.53;;;;;5.80;100287.00;;;;16587276;28;20386;-47
2022/11/26 22:22:53;;;;;;;27.33;22.90;;;;;5.50;100283.00;;;;16588195;28;20251;-47
2022/11/26 22:30:57;;;;;;;31.13;23.57;;;;;5.70;100282.00;;;;16585523;28;20233;-47
2022/11/26 22:39:00;;;;;;;32.43;23.50;;;;;4.90;100277.00;;;;16584915;28;20315;-47
2022/11/26 22:47:04;;;;;;;33.03;21.77;;;;;5.00;100282.00;;;;16568186;28;20230;-46
2022/11/26 22:55:07;;;;;;;45.50;29.73;;;;;5.30;100279.00;;;;16544689;28;20275;-47
2022/11/26 23:03:11;;;;;;;26.73;23.90;;;;;5.30;100280.00;;;;16539620;28;20899;-47
2022/11/26 23:11:16;;;;;;;27.70;22.00;;;;;5.10;100274.00;;;;16549771;28;20235;-47
2022/11/26 23:19:20;;;;;;;25.83;22.00;;;;;6.20;100261.00;;;;16541436;28;20747;-47
2022/11/26 23:27:23;;;;;;;27.70;22.70;;;;;6.50;100239.00;;;;16550317;28;20316;-46
2022/11/26 23:35:27;;;;;;;27.03;21.23;;;;;6.60;100234.00;;;;16547883;28;20213;-47
2022/11/26 23:43:30;;;;;;;27.23;21.37;;;;;6.60;100220.00;;;;16544609;28;20264;-46
2022/11/26 23:51:34;;;;;;;24.23;20.27;;;;;6.20;100208.00;;;;16545296;28;20755;-47
2022/11/26 23:59:37;;;;;;;26.40;21.87;;;;;5.90;100195.00;;;;16543804;28;20764;-46
